createdAt,value
2024-01-06T00:00:39.384Z,98.35
2024-01-06T00:03:30.522Z,96.94
2024-01-06T00:06:01.954Z,97.55
2024-01-06T00:08:31.606Z,96.86
2024-01-06T00:11:02.701Z,97.16
2024-01-06T00:13:32.084Z,97.93
2024-01-06T00:16:03.226Z,98.12
2024-01-06T00:18:32.762Z,97.19
2024-01-06T00:21:03.967Z,97.89
2024-01-06T00:23:33.616Z,98.57
2024-01-06T00:26:06.200Z,98.46
2024-01-06T00:28:37.486Z,98.24
2024-01-06T00:31:07.893Z,97.74
2024-01-06T00:33:39.431Z,97.63
2024-01-06T00:36:11.159Z,98.29
2024-01-06T00:38:42.238Z,98.62
2024-01-06T00:41:13.313Z,98.83
2024-01-06T00:43:42.621Z,98.74
2024-01-06T00:46:13.640Z,98.42
2024-01-06T00:48:44.896Z,99.12
2024-01-06T00:51:16.182Z,99.28
2024-01-06T00:53:47.280Z,99.15
2024-01-06T00:56:38.869Z,98.87
2024-01-06T00:59:09.900Z,99.34
2024-01-06T01:01:39.276Z,99.86
2024-01-06T01:04:10.679Z,100.00
2024-01-06T01:06:41.863Z,100.00
2024-01-06T01:09:11.329Z,100.00
2024-01-06T01:11:42.958Z,100.00
2024-01-06T01:14:14.031Z,100.00
2024-01-06T01:16:43.354Z,100.00
2024-01-06T01:19:14.996Z,100.00
2024-01-06T01:21:46.201Z,100.00
2024-01-06T01:24:15.612Z,100.00
2024-01-06T01:26:46.594Z,100.00
2024-01-06T01:29:17.749Z,100.00
2024-01-06T01:31:47.171Z,100.00
2024-01-06T01:34:18.561Z,100.00
2024-01-06T01:36:49.711Z,100.00
2024-01-06T01:39:19.139Z,100.00
2024-01-06T01:41:52.859Z,100.00
2024-01-06T01:44:23.908Z,100.00
2024-01-06T01:46:55.120Z,100.00
2024-01-06T01:49:27.857Z,100.00
2024-01-06T01:51:58.950Z,100.00
2024-01-06T01:54:28.334Z,100.00
2024-01-06T01:56:59.437Z,100.00
2024-01-06T01:59:28.773Z,100.00
2024-01-06T02:02:00.104Z,100.00
2024-01-06T02:04:31.419Z,100.00
2024-01-06T02:07:00.735Z,100.00
2024-01-06T02:09:31.906Z,100.00
2024-01-06T02:12:03.293Z,100.00
2024-01-06T02:14:34.801Z,100.00
2024-01-06T02:17:06.091Z,100.00
2024-01-06T02:19:37.370Z,100.00
2024-01-06T02:22:08.574Z,100.00
2024-01-06T02:24:38.058Z,100.00
2024-01-06T02:27:09.180Z,100.00
2024-01-06T02:29:38.553Z,100.00
2024-01-06T02:32:09.758Z,100.00
2024-01-06T02:34:40.905Z,100.00
2024-01-06T02:37:12.120Z,100.00
2024-01-06T02:39:41.531Z,100.00
2024-01-06T02:42:12.683Z,100.00
2024-01-06T02:44:43.738Z,100.00
2024-01-06T02:47:13.217Z,100.00
2024-01-06T02:49:44.379Z,100.00
2024-01-06T02:52:15.552Z,100.00
2024-01-06T02:54:44.936Z,100.00
2024-01-06T02:57:15.999Z,100.00
2024-01-06T02:59:47.462Z,100.00
2024-01-06T03:02:18.474Z,100.00
2024-01-06T03:04:49.741Z,100.00
2024-01-06T03:07:20.733Z,100.00
2024-01-06T03:09:50.239Z,100.00
2024-01-06T03:12:21.409Z,100.00
2024-01-06T03:14:50.999Z,100.00
2024-01-06T03:17:22.009Z,100.00
2024-01-06T03:19:53.637Z,100.00
2024-01-06T03:22:25.166Z,100.00
2024-01-06T03:24:54.652Z,100.00
2024-01-06T03:27:25.840Z,100.00
2024-01-06T03:29:55.210Z,100.00
2024-01-06T03:32:26.269Z,100.00
2024-01-06T03:34:57.419Z,100.00
2024-01-06T03:37:26.790Z,100.00
2024-01-06T03:39:57.956Z,100.00
2024-01-06T03:42:29.091Z,100.00
2024-01-06T03:44:58.486Z,100.00
2024-01-06T03:47:29.535Z,100.00
2024-01-06T03:49:58.928Z,100.00
2024-01-06T03:52:29.951Z,100.00
2024-01-06T03:55:01.141Z,100.00
2024-01-06T03:57:32.752Z,100.00
2024-01-06T04:00:04.375Z,100.00
2024-01-06T04:02:35.424Z,100.00
2024-01-06T04:05:07.188Z,100.00
2024-01-06T04:07:38.178Z,100.00
2024-01-06T04:10:10.587Z,100.00
2024-01-06T04:12:41.642Z,100.00
2024-01-06T04:15:11.161Z,100.00
2024-01-06T04:17:42.324Z,100.00
2024-01-06T04:20:15.497Z,100.00
2024-01-06T04:22:46.548Z,100.00
2024-01-06T04:25:17.687Z,100.00
2024-01-06T04:27:47.049Z,100.00
2024-01-06T04:30:18.876Z,100.00
2024-01-06T04:32:50.795Z,100.00
2024-01-06T04:35:23.633Z,100.00
2024-01-06T04:37:54.904Z,100.00
2024-01-06T04:40:26.275Z,100.00
2024-01-06T04:42:57.321Z,100.00
2024-01-06T04:45:28.814Z,100.00
2024-01-06T04:48:00.063Z,100.00
2024-01-06T04:50:29.422Z,100.00
2024-01-06T04:53:00.411Z,100.00
2024-01-06T04:55:37.642Z,100.00
2024-01-06T04:58:08.623Z,100.00
2024-01-06T05:00:39.767Z,100.00
2024-01-06T05:03:10.940Z,100.00
2024-01-06T05:05:42.661Z,100.00
2024-01-06T05:08:13.746Z,100.00
2024-01-06T05:10:45.344Z,100.00
2024-01-06T05:13:21.127Z,100.00
2024-01-06T05:15:52.188Z,100.00
2024-01-06T05:18:23.358Z,100.00
2024-01-06T05:20:55.104Z,100.00
2024-01-06T05:23:26.569Z,100.00
2024-01-06T05:25:57.687Z,100.00
2024-01-06T05:28:26.988Z,100.00
2024-01-06T05:30:58.145Z,100.00
2024-01-06T05:33:29.294Z,100.00
2024-01-06T05:35:58.711Z,100.00
2024-01-06T05:38:29.701Z,100.00
2024-01-06T05:41:00.744Z,100.00
2024-01-06T05:43:30.105Z,100.00
2024-01-06T05:46:01.295Z,100.00
2024-01-06T05:48:30.929Z,100.00
2024-01-06T05:51:02.437Z,100.00
2024-01-06T05:53:33.542Z,100.00
2024-01-06T05:56:11.620Z,100.00
2024-01-06T05:58:42.644Z,100.00
2024-01-06T06:01:12.166Z,100.00
2024-01-06T06:03:43.578Z,100.00
2024-01-06T06:06:14.755Z,100.00
2024-01-06T06:08:48.106Z,100.00
2024-01-06T06:11:19.246Z,100.00
2024-01-06T06:13:48.530Z,100.00
2024-01-06T06:16:19.674Z,100.00
2024-01-06T06:18:49.033Z,100.00
2024-01-06T06:21:20.263Z,100.00
2024-01-06T06:23:49.578Z,100.00
2024-01-06T06:26:20.813Z,100.00
2024-01-06T06:28:52.050Z,100.00
2024-01-06T06:31:23.770Z,100.00
2024-01-06T06:33:55.160Z,100.00
2024-01-06T06:36:26.410Z,100.00
2024-01-06T06:38:57.528Z,100.00
2024-01-06T06:41:28.561Z,100.00
2024-01-06T06:44:21.356Z,100.00
2024-01-06T06:46:50.110Z,100.00
2024-01-06T06:49:19.505Z,100.00
2024-01-06T06:51:50.658Z,100.00
2024-01-06T06:54:22.464Z,99.95
2024-01-06T06:57:06.813Z,99.97
2024-01-06T06:59:37.811Z,99.96
2024-01-06T07:02:11.771Z,99.83
2024-01-06T07:04:43.342Z,100.00
2024-01-06T07:07:12.699Z,98.72
2024-01-06T07:09:47.259Z,99.24
2024-01-06T07:12:18.375Z,99.26
2024-01-06T07:14:47.712Z,99.10
2024-01-06T07:17:19.395Z,99.87
2024-01-06T07:19:51.147Z,99.86
2024-01-06T07:22:22.476Z,100.00
2024-01-06T07:24:52.254Z,100.00
2024-01-06T07:27:23.317Z,99.97
2024-01-06T07:29:55.967Z,99.98
2024-01-06T07:32:27.317Z,99.92
2024-01-06T07:34:58.611Z,99.78
2024-01-06T07:37:29.684Z,99.37
2024-01-06T07:39:59.014Z,99.19
2024-01-06T07:42:36.960Z,98.86
2024-01-06T07:45:10.095Z,99.03
2024-01-06T07:47:41.199Z,98.88
2024-01-06T07:50:12.298Z,99.09
2024-01-06T07:52:43.342Z,98.51
2024-01-06T07:55:14.398Z,98.74
2024-01-06T07:57:44.442Z,98.44
2024-01-06T08:00:16.905Z,98.99
2024-01-06T08:02:47.995Z,98.03
2024-01-06T08:05:17.394Z,98.49
2024-01-06T08:07:48.950Z,98.22
2024-01-06T08:10:23.215Z,97.81
2024-01-06T08:12:55.033Z,97.19
2024-01-06T08:15:26.209Z,97.28
2024-01-06T08:17:55.794Z,97.88
2024-01-06T08:20:26.916Z,98.85
2024-01-06T08:22:56.325Z,98.40
2024-01-06T08:25:27.533Z,97.41
2024-01-06T08:27:58.649Z,96.82
2024-01-06T08:30:28.206Z,97.53
2024-01-06T08:32:59.361Z,96.77
2024-01-06T08:35:28.780Z,97.04
2024-01-06T08:38:00.251Z,97.43
2024-01-06T08:40:31.271Z,97.45
2024-01-06T08:43:02.688Z,95.74
2024-01-06T08:45:33.805Z,95.34
2024-01-06T08:48:05.956Z,95.38
2024-01-06T08:50:37.336Z,95.22
2024-01-06T08:53:08.653Z,94.89
2024-01-06T08:55:40.069Z,93.90
2024-01-06T08:58:11.160Z,94.23
2024-01-06T09:00:40.491Z,94.25
2024-01-06T09:03:45.407Z,93.76
2024-01-06T09:06:07.611Z,94.24
2024-01-06T09:08:38.692Z,92.84
2024-01-06T09:11:08.087Z,93.29
2024-01-06T09:13:39.160Z,92.77
2024-01-06T09:16:08.695Z,92.56
2024-01-06T09:18:39.987Z,93.15
2024-01-06T09:21:11.080Z,93.98
2024-01-06T09:23:42.110Z,93.41
2024-01-06T09:26:13.336Z,92.96
2024-01-06T09:28:44.470Z,91.93
2024-01-06T09:31:15.655Z,91.84
2024-01-06T09:33:55.556Z,92.82
2024-01-06T09:36:26.644Z,92.76
2024-01-06T09:38:57.697Z,91.75
2024-01-06T09:41:27.140Z,92.04
2024-01-06T09:44:22.958Z,92.22
2024-01-06T09:46:52.428Z,91.78
2024-01-06T09:49:26.948Z,91.53
2024-01-06T09:52:05.113Z,91.84
2024-01-06T09:54:39.780Z,92.37
2024-01-06T09:57:11.554Z,91.96
2024-01-06T09:59:45.098Z,92.57
2024-01-06T10:02:17.734Z,92.21
2024-01-06T10:04:49.678Z,91.16
2024-01-06T10:07:20.943Z,91.47
2024-01-06T10:09:55.427Z,92.28
2024-01-06T10:12:30.139Z,92.18
2024-01-06T10:15:05.692Z,90.99
2024-01-06T10:17:39.253Z,90.58
2024-01-06T10:20:13.079Z,90.80
2024-01-06T10:22:44.781Z,91.76
2024-01-06T10:25:15.941Z,91.51
2024-01-06T10:27:45.330Z,90.98
2024-01-06T10:30:16.880Z,90.33
2024-01-06T10:32:48.278Z,91.15
2024-01-06T10:35:20.335Z,91.21
2024-01-06T10:37:53.052Z,90.79
2024-01-06T10:40:24.376Z,90.43
2024-01-06T10:42:56.962Z,89.89
2024-01-06T10:45:29.412Z,89.75
2024-01-06T10:48:00.900Z,89.09
2024-01-06T10:50:32.942Z,89.95
2024-01-06T10:53:05.126Z,90.82
2024-01-06T10:55:44.487Z,90.80
2024-01-06T10:58:18.295Z,91.89
2024-01-06T11:00:50.955Z,91.33
2024-01-06T11:03:23.272Z,90.78
2024-01-06T11:05:54.595Z,91.52
2024-01-06T11:08:26.718Z,91.09
2024-01-06T11:10:59.397Z,92.14
2024-01-06T11:13:30.404Z,91.54
2024-01-06T11:16:00.746Z,90.76
2024-01-06T11:18:37.288Z,91.46
2024-01-06T11:21:22.439Z,91.79
2024-01-06T11:24:19.256Z,91.55
2024-01-06T11:26:53.318Z,90.83
2024-01-06T11:29:26.857Z,90.90
2024-01-06T11:32:31.218Z,91.14
2024-01-06T11:35:09.985Z,91.25
2024-01-06T11:37:55.210Z,91.57
2024-01-06T11:40:38.382Z,91.64
2024-01-06T11:43:13.336Z,91.59
2024-01-06T11:45:44.773Z,91.37
2024-01-06T11:48:32.576Z,92.24
2024-01-06T11:51:04.581Z,91.96
2024-01-06T11:53:36.250Z,91.73
2024-01-06T11:56:10.099Z,91.43
2024-01-06T11:58:43.420Z,91.94
2024-01-06T12:01:14.622Z,90.86
2024-01-06T12:03:54.550Z,90.94
2024-01-06T12:06:28.494Z,91.27
2024-01-06T12:09:05.755Z,91.15
2024-01-06T12:11:37.770Z,91.88
2024-01-06T12:14:08.822Z,91.73
2024-01-06T12:16:38.296Z,91.32
2024-01-06T12:19:09.549Z,90.69
2024-01-06T12:21:41.180Z,89.69
2024-01-06T12:24:23.207Z,89.82
2024-01-06T12:26:56.101Z,90.54
2024-01-06T12:29:29.320Z,89.75
2024-01-06T12:32:02.104Z,88.80
2024-01-06T12:34:33.689Z,88.89
2024-01-06T12:37:08.746Z,89.16
2024-01-06T12:39:40.402Z,89.16
2024-01-06T12:42:16.174Z,89.91
2024-01-06T12:44:48.139Z,89.59
2024-01-06T12:47:17.626Z,89.70
2024-01-06T12:49:49.385Z,89.71
2024-01-06T12:52:21.709Z,88.48
2024-01-06T12:54:53.063Z,88.07
2024-01-06T12:57:26.575Z,88.63
2024-01-06T12:59:57.925Z,88.84
2024-01-06T13:02:29.396Z,88.76
2024-01-06T13:04:58.833Z,89.48
2024-01-06T13:07:39.845Z,89.14
2024-01-06T13:10:11.742Z,89.05
2024-01-06T13:12:43.010Z,87.88
2024-01-06T13:15:14.259Z,88.52
2024-01-06T13:17:48.794Z,88.54
2024-01-06T13:20:20.617Z,89.00
2024-01-06T13:22:54.245Z,88.24
2024-01-06T13:25:25.429Z,87.77
2024-01-06T13:27:56.549Z,87.52
2024-01-06T13:30:27.816Z,88.07
2024-01-06T13:33:01.187Z,87.60
2024-01-06T13:35:32.357Z,87.31
2024-01-06T13:38:01.958Z,86.86
2024-01-06T13:40:33.515Z,86.50
2024-01-06T13:43:05.280Z,87.44
2024-01-06T13:45:36.718Z,86.73
2024-01-06T13:48:10.563Z,86.53
2024-01-06T13:50:42.072Z,85.84
2024-01-06T13:53:13.361Z,86.12
2024-01-06T13:55:46.093Z,85.79
2024-01-06T13:58:37.658Z,86.03
2024-01-06T14:01:10.385Z,86.12
2024-01-06T14:04:05.347Z,85.90
2024-01-06T14:06:36.976Z,86.60
2024-01-06T14:09:08.330Z,86.56
2024-01-06T14:12:02.762Z,85.56
2024-01-06T14:15:26.828Z,85.69
2024-01-06T14:17:37.511Z,85.92
2024-01-06T14:20:44.061Z,85.84
2024-01-06T14:23:39.655Z,85.48
2024-01-06T14:26:16.825Z,84.19
2024-01-06T14:29:14.671Z,84.14
2024-01-06T14:31:46.237Z,84.11
2024-01-06T14:34:17.695Z,84.45
2024-01-06T14:36:49.257Z,84.41
2024-01-06T14:39:20.792Z,83.94
2024-01-06T14:41:52.200Z,84.14
2024-01-06T14:44:25.699Z,83.91
2024-01-06T14:47:20.233Z,84.02
2024-01-06T14:49:48.834Z,84.68
2024-01-06T14:52:26.057Z,84.80
2024-01-06T14:54:57.613Z,84.95
2024-01-06T14:57:29.940Z,84.22
2024-01-06T15:00:25.707Z,84.15
2024-01-06T15:03:56.378Z,82.91
2024-01-06T15:07:17.550Z,83.61
2024-01-06T15:10:25.022Z,83.75
2024-01-06T15:15:30.476Z,82.78
2024-01-06T15:21:03.534Z,83.69
2024-01-06T15:23:20.568Z,84.54
2024-01-06T15:25:49.961Z,84.28
2024-01-06T15:28:21.110Z,83.65
2024-01-06T15:30:52.433Z,82.99
2024-01-06T15:33:23.963Z,82.59
2024-01-06T15:36:00.216Z,83.12
2024-01-06T15:38:31.540Z,83.67
2024-01-06T15:41:12.484Z,82.95
2024-01-06T15:43:43.547Z,82.55
2024-01-06T15:46:15.145Z,82.46
2024-01-06T15:48:46.385Z,83.03
2024-01-06T15:51:17.896Z,81.82
2024-01-06T15:53:48.909Z,82.52
2024-01-06T15:56:25.312Z,82.24
2024-01-06T15:58:56.277Z,82.47
2024-01-06T16:01:27.499Z,81.88
2024-01-06T16:03:59.052Z,81.21
2024-01-06T16:06:34.543Z,81.33
2024-01-06T16:09:09.440Z,81.71
2024-01-06T16:11:44.338Z,81.16
2024-01-06T16:14:15.372Z,80.96
2024-01-06T16:16:46.938Z,81.30
2024-01-06T16:19:18.295Z,81.81
2024-01-06T16:21:54.261Z,81.63
2024-01-06T16:24:28.912Z,82.17
2024-01-06T16:27:00.043Z,81.82
2024-01-06T16:29:29.412Z,81.67
2024-01-06T16:32:00.532Z,81.50
2024-01-06T16:34:30.240Z,81.53
2024-01-06T16:36:59.801Z,81.14
2024-01-06T16:39:29.172Z,81.26
2024-01-06T16:41:59.052Z,81.81
2024-01-06T16:44:31.639Z,82.25
2024-01-06T16:47:07.601Z,82.42
2024-01-06T16:49:40.988Z,81.55
2024-01-06T16:52:10.431Z,81.49
2024-01-06T16:54:40.013Z,81.34
2024-01-06T16:57:09.361Z,81.46
2024-01-06T16:59:48.664Z,81.16
2024-01-06T17:02:18.062Z,81.29
2024-01-06T17:04:47.762Z,80.83
2024-01-06T17:07:31.091Z,80.71
2024-01-06T17:10:01.347Z,80.98
2024-01-06T17:12:30.885Z,81.02
2024-01-06T17:15:00.993Z,80.94
2024-01-06T17:17:30.519Z,80.81
2024-01-06T17:20:02.907Z,80.58
2024-01-06T17:22:45.342Z,80.91
2024-01-06T17:25:17.925Z,80.52
2024-01-06T17:27:47.532Z,81.02
2024-01-06T17:30:19.409Z,81.84
2024-01-06T17:32:48.989Z,81.34
2024-01-06T17:35:18.816Z,81.57
2024-01-06T17:37:48.262Z,81.46
2024-01-06T17:40:18.105Z,82.19
2024-01-06T17:43:00.466Z,82.68
2024-01-06T17:45:48.235Z,83.09
2024-01-06T17:48:19.944Z,83.94
2024-01-06T17:51:19.722Z,84.74
2024-01-06T17:53:39.222Z,85.51
2024-01-06T17:56:08.866Z,85.75
2024-01-06T17:58:38.319Z,85.84
2024-01-06T18:01:07.791Z,86.65
2024-01-06T18:03:37.227Z,86.96
2024-01-06T18:06:07.152Z,87.00
2024-01-06T18:08:36.734Z,86.84
2024-01-06T18:11:07.780Z,86.80
2024-01-06T18:13:37.807Z,86.84
2024-01-06T18:16:07.636Z,86.69
2024-01-06T18:18:37.361Z,86.36
2024-01-06T18:21:06.935Z,86.24
2024-01-06T18:23:36.336Z,85.85
2024-01-06T18:26:06.823Z,85.90
2024-01-06T18:28:36.123Z,85.37
2024-01-06T18:31:05.616Z,85.55
2024-01-06T18:33:36.801Z,85.25
2024-01-06T18:36:08.547Z,84.50
2024-01-06T18:41:18.946Z,83.70
2024-01-06T18:43:48.279Z,83.54
2024-01-06T18:46:19.415Z,83.57
2024-01-06T18:48:49.041Z,83.05
2024-01-06T18:51:21.913Z,82.33
2024-01-06T18:53:55.012Z,82.14
2024-01-06T18:56:26.065Z,81.40
2024-01-06T18:58:57.181Z,82.02
2024-01-06T19:01:26.985Z,81.39
2024-01-06T19:03:58.212Z,80.64
2024-01-06T19:06:29.368Z,81.34
2024-01-06T19:09:30.537Z,80.76
2024-01-06T19:11:59.739Z,79.77
2024-01-06T19:14:30.941Z,79.79
2024-01-06T19:17:00.251Z,79.51
2024-01-06T19:19:31.531Z,78.53
2024-01-06T19:22:02.842Z,78.76
2024-01-06T19:24:40.449Z,78.91
2024-01-06T19:27:17.534Z,79.05
2024-01-06T19:29:58.562Z,78.33
2024-01-06T19:32:29.713Z,79.46
2024-01-06T19:35:04.076Z,78.37
2024-01-06T19:37:35.221Z,78.77
2024-01-06T19:40:05.209Z,78.21
2024-01-06T19:42:39.638Z,78.36
2024-01-06T19:45:11.579Z,78.07
2024-01-06T19:47:44.430Z,78.38
2024-01-06T19:50:41.303Z,78.35
2024-01-06T19:53:11.352Z,78.31
2024-01-06T19:55:44.306Z,78.74
2024-01-06T19:58:38.802Z,78.16
2024-01-06T20:01:39.089Z,78.06
2024-01-06T20:04:11.089Z,77.46
2024-01-06T20:06:44.836Z,78.24
2024-01-06T20:09:48.573Z,77.48
2024-01-06T20:12:11.384Z,78.30
2024-01-06T20:14:42.665Z,77.87
2024-01-06T20:17:13.833Z,78.43
2024-01-06T20:20:12.040Z,78.46
2024-01-06T20:22:40.846Z,77.71
2024-01-06T20:25:10.918Z,78.00
2024-01-06T20:27:44.601Z,77.89
2024-01-06T20:30:16.718Z,77.52
2024-01-06T20:32:53.704Z,77.56
2024-01-06T20:35:25.008Z,77.59
2024-01-06T20:37:56.838Z,77.15
2024-01-06T20:40:33.246Z,77.90
2024-01-06T20:43:05.139Z,77.57
2024-01-06T20:45:36.307Z,76.73
2024-01-06T20:48:06.419Z,77.40
2024-01-06T20:50:44.817Z,77.58
2024-01-06T20:53:16.346Z,77.49
2024-01-06T20:55:48.927Z,77.36
2024-01-06T20:58:20.343Z,78.45
2024-01-06T21:00:52.747Z,78.00
2024-01-06T21:03:26.374Z,76.87
2024-01-06T21:05:57.934Z,77.04
2024-01-06T21:08:28.956Z,77.25
2024-01-06T21:11:00.626Z,77.84
2024-01-06T21:13:31.989Z,77.55
2024-01-06T21:16:03.276Z,77.95
2024-01-06T21:18:35.008Z,77.26
2024-01-06T21:21:06.392Z,77.45
2024-01-06T21:23:44.921Z,77.40
2024-01-06T21:26:20.642Z,76.77
2024-01-06T21:28:52.669Z,76.92
2024-01-06T21:31:24.015Z,77.55
2024-01-06T21:33:58.261Z,77.45
2024-01-06T21:36:29.499Z,77.63
2024-01-06T21:39:00.629Z,77.34
2024-01-06T21:41:32.252Z,77.13
2024-01-06T21:44:01.549Z,76.88
2024-01-06T21:46:33.452Z,76.78
2024-01-06T21:49:04.629Z,76.72
2024-01-06T21:51:46.477Z,76.91
2024-01-06T21:54:17.606Z,77.22
2024-01-06T21:56:47.816Z,76.65
2024-01-06T21:59:18.843Z,76.80
2024-01-06T22:01:49.992Z,77.16
2024-01-06T22:04:21.078Z,77.38
2024-01-06T22:06:50.678Z,76.91
2024-01-06T22:09:32.949Z,76.74
2024-01-06T22:12:04.266Z,75.95
2024-01-06T22:14:36.227Z,76.14
2024-01-06T22:17:07.712Z,76.86
2024-01-06T22:19:38.785Z,77.17
2024-01-06T22:22:30.530Z,75.51
2024-01-06T22:25:01.759Z,76.35
2024-01-06T22:27:32.988Z,76.16
2024-01-06T22:30:04.102Z,76.12
2024-01-06T22:32:35.541Z,76.83
2024-01-06T22:35:08.259Z,76.58
2024-01-06T22:37:39.341Z,75.83
2024-01-06T22:40:10.749Z,76.26
2024-01-06T22:42:41.984Z,76.21
2024-01-06T22:45:11.557Z,75.99
2024-01-06T22:47:42.734Z,75.52
2024-01-06T22:50:13.992Z,75.71
2024-01-06T22:52:45.170Z,76.13
2024-01-06T22:55:16.436Z,75.66
2024-01-06T22:57:47.585Z,75.46
2024-01-06T23:03:24.939Z,75.61
2024-01-06T23:05:56.125Z,75.85
2024-01-06T23:08:25.467Z,75.99
2024-01-06T23:10:58.659Z,76.05
2024-01-06T23:13:30.485Z,75.66
2024-01-06T23:16:01.587Z,76.16
2024-01-06T23:18:33.199Z,76.44
2024-01-06T23:21:04.695Z,76.57
2024-01-06T23:23:37.278Z,75.29
2024-01-06T23:26:08.392Z,75.07
2024-01-06T23:28:37.758Z,75.15
2024-01-06T23:31:08.934Z,75.47
2024-01-06T23:33:41.603Z,74.70
2024-01-06T23:36:12.807Z,75.02
2024-01-06T23:38:43.814Z,75.46
2024-01-06T23:41:15.342Z,75.60
2024-01-06T23:43:46.803Z,75.01
2024-01-06T23:46:16.075Z,74.81
2024-01-06T23:48:47.173Z,75.04
2024-01-06T23:51:20.517Z,75.03
2024-01-06T23:53:53.792Z,74.89
2024-01-06T23:56:25.477Z,74.72
2024-01-06T23:58:56.603Z,75.14
